Time;durP1;ratioP1;P1;durP2;ratioP2;P2;SDS_P1;SDS_P2;PMS_P1;PMS_P2;Temp;Humidity;BMP_temperature;BMP_pressure;BME280_temperature;BME280_humidity;BME280_pressure;Samples;Min_cycle;Max_cycle;Signal;HPM_P1;HPM_P2
2021/08/18 12:34:06;;;;;;;4.07;3.14;;;;;;;38.22;22.63;99540.78;365878;145;880219;-62
2021/08/18 12:35:10;;;;;;;4.74;3.61;;;;;;;37.52;23.33;99538.98;357695;147;857514;-61
2021/08/18 12:36:13;;;;;;;7.12;4.19;;;;;;;38.39;22.71;99540.41;357346;149;856541;-61
2021/08/18 12:37:17;;;;;;;5.75;3.61;;;;;;;39.06;22.19;99542.38;366101;145;856417;-62
2021/08/18 12:38:19;;;;;;;5.49;3.39;;;;;;;;;;364433;144;856384;-62
2021/08/18 12:39:22;;;;;;;7.41;4.31;;;;;;;;;;364260;145;863662;-63
2021/08/18 12:40:27;;;;;;;6.52;4.28;;;;;;;;;;364802;144;864191;-60
2021/08/18 12:41:29;;;;;;;6.11;4.11;;;;;;;;;;365158;145;857194;-65
2021/08/18 12:42:38;;;;;;;5.09;3.93;;;;;;;;;;365143;147;856472;-65
2021/08/18 12:43:40;;;;;;;5.49;4.61;;;;;;;;;;361949;145;857035;-64
2021/08/18 12:44:41;;;;;;;5.01;3.91;;;;;;;;;;365577;144;857216;-63
2021/08/18 12:45:45;;;;;;;4.75;3.64;;;;;;;;;;366074;145;856471;-67
2021/08/18 12:46:47;;;;;;;5.22;3.88;;;;;;;;;;363619;145;856288;-63
2021/08/18 12:47:53;;;;;;;4.39;3.60;;;;;;;;;;365513;144;856523;-61
2021/08/18 12:48:55;;;;;;;7.48;3.86;;;;;;;;;;367173;145;856925;-66
2021/08/18 12:49:56;;;;;;;3.60;3.25;;;;;;;;;;357467;147;856383;-63
2021/08/18 12:51:03;;;;;;;8.05;3.45;;;;;;;;;;359503;147;856349;-62
2021/08/18 13:13:49;;;;;;;4.72;2.68;;;;;;;40.77;18.52;99499.77;366540;142;881450;-63
2021/08/18 13:14:51;;;;;;;6.05;2.77;;;;;;;39.56;19.52;99496.66;362714;147;857376;-62
2021/08/18 13:15:53;;;;;;;5.31;2.84;;;;;;;38.41;20.63;99495.06;361271;147;859636;-63
2021/08/18 13:16:56;;;;;;;4.18;2.93;;;;;;;37.67;21.63;99486.73;362434;146;865382;-62
2021/08/18 13:17:58;;;;;;;4.94;2.75;;;;;;;38.24;21.35;99489.20;360042;147;856483;-61
2021/08/18 13:19:00;;;;;;;5.51;3.19;;;;;;;39.34;20.88;99492.55;364136;147;856514;-63
2021/08/18 13:20:02;;;;;;;2.97;2.56;;;;;;;39.53;20.81;99494.39;362262;147;856354;-61
2021/08/18 13:21:04;;;;;;;6.33;2.88;;;;;;;39.76;20.29;99484.91;360271;146;863764;-61
2021/08/18 13:22:05;;;;;;;5.35;2.75;;;;;;;40.41;19.10;99489.39;361546;147;856563;-61
2021/08/18 13:34:14;;;;;;;3.43;2.86;;;;;;;30.79;30.43;99477.33;372912;142;882112;-62
2021/08/18 13:35:16;;;;;;;4.87;2.48;;;;;;;29.45;32.52;99473.34;363617;144;859903;-62
2021/08/18 13:36:18;;;;;;;4.45;3.04;;;;;;;29.02;33.72;99472.86;365588;144;857332;-61
2021/08/18 13:37:19;;;;;;;3.01;2.65;;;;;;;28.75;33.92;99468.27;361735;146;857914;-61
2021/08/18 13:38:21;;;;;;;4.61;2.70;;;;;;;28.63;34.26;99467.56;362913;145;864839;-61
2021/08/18 13:39:23;;;;;;;4.21;2.79;;;;;;;28.62;34.86;99469.36;365424;145;864763;-61
2021/08/18 13:40:25;;;;;;;4.35;3.02;;;;;;;28.70;35.07;99466.02;370640;145;864945;-62
2021/08/18 13:41:28;;;;;;;4.42;2.71;;;;;;;28.89;34.82;99473.19;361275;145;859944;-61
2021/08/18 13:42:29;;;;;;;4.51;2.59;;;;;;;29.63;33.70;99470.75;364362;145;865377;-61
2021/08/18 13:43:31;;;;;;;4.98;2.78;;;;;;;30.80;31.66;99476.33;359442;149;856924;-61
2021/08/18 13:44:35;;;;;;;4.32;2.72;;;;;;;32.26;29.82;99464.02;360997;146;863794;-61
2021/08/18 13:45:37;;;;;;;5.47;2.69;;;;;;;32.85;28.50;99471.11;361752;145;863901;-61
2021/08/18 13:46:42;;;;;;;4.44;2.69;;;;;;;;;;364609;147;858004;-61
2021/08/18 13:47:43;;;;;;;3.64;2.67;;;;;;;;;;366229;146;856484;-61
2021/08/18 13:48:45;;;;;;;3.30;2.62;;;;;;;;;;361819;145;856437;-61
2021/08/18 13:49:46;;;;;;;7.79;2.69;;;;;;;;;;362882;145;856530;-61
2021/08/18 13:50:50;;;;;;;3.40;2.69;;;;;;;;;;363722;147;856551;-61
2021/08/18 13:51:51;;;;;;;3.47;2.91;;;;;;;;;;362327;145;856469;-61
2021/08/18 13:52:56;;;;;;;3.02;2.54;;;;;;;;;;362624;145;856388;-61
2021/08/18 13:53:58;;;;;;;4.21;2.84;;;;;;;;;;362511;148;856350;-61
2021/08/18 13:54:59;;;;;;;4.39;2.88;;;;;;;;;;362923;144;856466;-61
2021/08/18 13:56:01;;;;;;;7.37;3.15;;;;;;;;;;363920;145;864023;-62
2021/08/18 13:57:03;;;;;;;5.31;2.45;;;;;;;;;;362602;148;856664;-61
2021/08/18 13:58:05;;;;;;;6.02;2.66;;;;;;;;;;362594;148;856550;-61
2021/08/18 13:59:06;;;;;;;6.26;2.56;;;;;;;;;;362545;146;856578;-61
2021/08/18 14:00:09;;;;;;;3.77;2.31;;;;;;;;;;363564;145;856638;-61
2021/08/18 14:01:10;;;;;;;3.61;2.65;;;;;;;;;;363009;146;856614;-61
2021/08/18 14:02:12;;;;;;;6.14;2.51;;;;;;;;;;362805;145;856529;-61
2021/08/18 14:03:16;;;;;;;5.29;2.44;;;;;;;;;;363217;145;856510;-60
2021/08/18 14:04:17;;;;;;;2.67;2.24;;;;;;;;;;363142;145;856365;-60
2021/08/18 14:05:19;;;;;;;4.41;2.34;;;;;;;;;;365838;146;856421;-63
2021/08/18 14:06:21;;;;;;;4.11;2.36;;;;;;;;;;363351;146;856399;-60
2021/08/18 14:07:23;;;;;;;3.05;2.52;;;;;;;;;;363712;145;856438;-61
2021/08/18 14:08:24;;;;;;;4.01;3.02;;;;;;;;;;363308;146;856383;-61
2021/08/18 14:09:26;;;;;;;3.79;2.66;;;;;;;;;;363992;145;856486;-61
2021/08/18 14:10:28;;;;;;;3.61;2.23;;;;;;;;;;363060;145;856694;-61
2021/08/18 14:11:29;;;;;;;4.14;2.54;;;;;;;;;;363287;146;863803;-61
2021/08/18 14:12:31;;;;;;;4.99;2.42;;;;;;;;;;362507;145;856670;-61
2021/08/18 14:13:32;;;;;;;3.59;2.46;;;;;;;;;;362919;145;856624;-61
2021/08/18 14:14:34;;;;;;;3.80;2.49;;;;;;;;;;362629;145;856531;-61
2021/08/18 14:15:36;;;;;;;4.36;2.59;;;;;;;;;;362692;148;864291;-61
2021/08/18 14:16:38;;;;;;;3.31;2.29;;;;;;;;;;362649;145;857051;-61
2021/08/18 14:17:40;;;;;;;2.71;2.34;;;;;;;;;;363472;145;856611;-61
2021/08/18 14:18:42;;;;;;;4.43;2.91;;;;;;;;;;363362;146;856377;-61
2021/08/18 14:19:43;;;;;;;4.07;2.43;;;;;;;;;;363214;146;863651;-61
2021/08/18 14:20:45;;;;;;;4.66;2.70;;;;;;;;;;363117;145;856394;-61
2021/08/18 14:21:47;;;;;;;4.98;2.62;;;;;;;;;;362363;145;856446;-61
2021/08/18 14:22:48;;;;;;;5.47;2.75;;;;;;;;;;362506;146;863693;-61
2021/08/18 14:23:50;;;;;;;3.84;2.35;;;;;;;;;;362478;145;856333;-61
2021/08/18 14:24:51;;;;;;;4.38;2.61;;;;;;;;;;365053;145;856520;-61
2021/08/18 14:25:53;;;;;;;4.60;2.86;;;;;;;;;;363603;144;856443;-61
2021/08/18 14:26:55;;;;;;;3.92;2.67;;;;;;;;;;362784;148;856423;-61
2021/08/18 14:27:57;;;;;;;3.22;2.59;;;;;;;;;;363960;145;856706;-61
2021/08/18 14:28:58;;;;;;;6.09;3.02;;;;;;;;;;363339;144;863699;-61
2021/08/18 14:30:00;;;;;;;5.26;2.54;;;;;;;;;;362774;146;856484;-61
2021/08/18 14:31:01;;;;;;;5.11;3.07;;;;;;;;;;362725;145;856461;-61
2021/08/18 14:32:03;;;;;;;5.65;2.80;;;;;;;;;;363696;144;857025;-61
2021/08/18 14:33:05;;;;;;;3.43;2.52;;;;;;;;;;363641;146;863861;-61
2021/08/18 14:34:06;;;;;;;4.18;2.39;;;;;;;;;;363087;146;863885;-61
2021/08/18 14:35:09;;;;;;;4.34;2.88;;;;;;;;;;363705;144;863944;-60
2021/08/18 14:36:11;;;;;;;3.81;2.81;;;;;;;;;;362627;144;863769;-61
2021/08/18 14:37:13;;;;;;;4.41;2.87;;;;;;;;;;363219;146;856497;-61
2021/08/18 14:38:14;;;;;;;3.47;2.28;;;;;;;;;;365540;144;856377;-61
2021/08/18 14:39:16;;;;;;;3.07;2.60;;;;;;;;;;363674;144;856422;-61
2021/08/18 14:40:18;;;;;;;2.89;2.43;;;;;;;;;;363533;146;856859;-61
2021/08/18 14:41:20;;;;;;;3.94;2.61;;;;;;;;;;362797;146;856284;-61
2021/08/18 14:42:21;;;;;;;7.01;2.49;;;;;;;;;;363254;144;856606;-61
2021/08/18 14:43:23;;;;;;;3.14;2.47;;;;;;;;;;363340;144;856398;-61
2021/08/18 14:44:24;;;;;;;3.41;2.79;;;;;;;;;;362798;148;856393;-61
2021/08/18 14:45:26;;;;;;;3.36;2.88;;;;;;;;;;362653;144;856579;-60
2021/08/18 14:46:28;;;;;;;4.02;3.01;;;;;;;;;;362886;144;856448;-61
2021/08/18 14:47:29;;;;;;;4.31;2.87;;;;;;;;;;364839;146;863857;-59
2021/08/18 14:48:31;;;;;;;3.39;2.86;;;;;;;;;;363254;146;856510;-61
2021/08/18 14:49:32;;;;;;;4.20;2.65;;;;;;;;;;362494;146;863758;-61
2021/08/18 14:50:34;;;;;;;6.24;3.33;;;;;;;;;;363507;146;856441;-61
2021/08/18 14:51:36;;;;;;;5.09;3.13;;;;;;;;;;363762;146;863773;-64
2021/08/18 14:52:37;;;;;;;4.39;2.89;;;;;;;;;;362639;144;856532;-59
2021/08/18 14:53:39;;;;;;;5.86;3.61;;;;;;;;;;364412;144;856991;-62
2021/08/18 14:54:41;;;;;;;6.35;2.77;;;;;;;;;;362628;147;863702;-63
2021/08/18 14:55:44;;;;;;;6.34;3.64;;;;;;;;;;363312;144;857006;-62
2021/08/18 14:56:47;;;;;;;3.97;2.79;;;;;;;;;;362406;145;856971;-62
2021/08/18 14:57:48;;;;;;;4.34;2.86;;;;;;;;;;363524;144;856402;-60
2021/08/18 14:58:50;;;;;;;5.59;2.76;;;;;;;;;;362667;148;856383;-61
2021/08/18 14:59:51;;;;;;;3.73;2.71;;;;;;;;;;363928;144;856424;-60
2021/08/18 15:00:54;;;;;;;7.95;2.99;;;;;;;;;;362443;145;856385;-60
2021/08/18 15:01:56;;;;;;;6.14;3.04;;;;;;;;;;363430;146;857090;-61
2021/08/18 15:02:59;;;;;;;5.14;3.02;;;;;;;;;;363504;144;856482;-59
2021/08/18 15:04:00;;;;;;;5.07;2.79;;;;;;;;;;362894;145;856476;-62
2021/08/18 15:05:02;;;;;;;4.70;3.10;;;;;;;;;;363687;144;856311;-62
2021/08/18 15:06:04;;;;;;;4.94;2.84;;;;;;;;;;362634;148;863954;-63
2021/08/18 15:07:06;;;;;;;5.29;2.84;;;;;;;;;;364743;144;856688;-60
2021/08/18 15:08:09;;;;;;;5.13;3.14;;;;;;;;;;363525;146;864022;-63
2021/08/18 15:09:10;;;;;;;5.09;2.79;;;;;;;;;;362603;148;856683;-62
2021/08/18 15:10:13;;;;;;;3.49;2.75;;;;;;;;;;362803;144;856529;-62
2021/08/18 15:11:15;;;;;;;4.69;3.15;;;;;;;;;;362883;144;863586;-60
2021/08/18 15:12:17;;;;;;;3.91;2.85;;;;;;;;;;362745;146;863857;-64
2021/08/18 15:13:18;;;;;;;4.28;2.57;;;;;;;;;;363203;146;856247;-62
2021/08/18 15:14:20;;;;;;;5.79;2.91;;;;;;;;;;363321;144;856465;-64
2021/08/18 15:15:21;;;;;;;3.92;2.89;;;;;;;;;;363387;144;856327;-62
2021/08/18 15:16:23;;;;;;;4.33;3.09;;;;;;;;;;362679;148;856348;-62
2021/08/18 15:17:25;;;;;;;3.86;2.86;;;;;;;;;;362452;144;856299;-62
2021/08/18 15:18:26;;;;;;;3.76;2.84;;;;;;;;;;363721;144;856380;-62
2021/08/18 15:19:28;;;;;;;4.39;2.92;;;;;;;;;;362995;145;856546;-62
2021/08/18 15:20:30;;;;;;;5.78;3.03;;;;;;;;;;363713;146;856428;-62
2021/08/18 15:21:32;;;;;;;5.54;3.04;;;;;;;;;;362825;144;856451;-62
2021/08/18 15:22:34;;;;;;;6.85;3.21;;;;;;;;;;363533;145;863713;-62
2021/08/18 15:23:35;;;;;;;5.53;3.50;;;;;;;;;;364500;146;856336;-62
2021/08/18 15:24:38;;;;;;;4.80;3.39;;;;;;;;;;363672;144;856395;-62
2021/08/18 15:25:40;;;;;;;6.05;3.71;;;;;;;;;;362576;144;857050;-62
2021/08/18 15:26:41;;;;;;;4.34;3.29;;;;;;;;;;362741;146;856403;-61
2021/08/18 15:27:52;;;;;;;5.55;3.63;;;;;;;;;;363132;146;856422;-61
2021/08/18 15:28:53;;;;;;;5.93;3.13;;;;;;;;;;363325;144;856888;-61
2021/08/18 15:29:55;;;;;;;5.11;3.36;;;;;;;;;;363903;144;856938;-59
2021/08/18 15:30:57;;;;;;;4.33;3.19;;;;;;;;;;363219;146;856707;-62
2021/08/18 15:31:59;;;;;;;7.61;3.66;;;;;;;;;;362929;144;856871;-60
2021/08/18 15:33:00;;;;;;;4.32;3.45;;;;;;;;;;362516;144;864481;-60
2021/08/18 15:34:02;;;;;;;4.43;3.19;;;;;;;;;;363499;144;856438;-59
2021/08/18 15:35:05;;;;;;;9.61;3.71;;;;;;;;;;362661;146;857071;-60
2021/08/18 15:36:08;;;;;;;6.36;3.48;;;;;;;;;;362793;145;856509;-61
2021/08/18 15:37:09;;;;;;;4.09;3.09;;;;;;;;;;363055;144;857690;-61
2021/08/18 15:38:11;;;;;;;4.84;3.33;;;;;;;;;;364432;145;856607;-59
2021/08/18 15:39:13;;;;;;;4.07;3.14;;;;;;;;;;362719;145;858191;-61
2021/08/18 15:40:15;;;;;;;4.51;2.96;;;;;;;;;;363408;145;857050;-61
2021/08/18 15:41:17;;;;;;;7.88;3.42;;;;;;;;;;362514;147;860088;-60
2021/08/18 15:42:19;;;;;;;5.77;3.28;;;;;;;;;;359186;148;856424;-60
2021/08/18 15:43:21;;;;;;;6.82;3.09;;;;;;;;;;359141;146;856381;-61
2021/08/18 15:44:22;;;;;;;4.70;2.95;;;;;;;;;;363351;145;856323;-59
2021/08/18 15:45:24;;;;;;;4.25;3.37;;;;;;;;;;364487;146;856854;-60
2021/08/18 15:46:27;;;;;;;9.63;3.08;;;;;;;;;;363406;146;856286;-60
2021/08/18 15:47:28;;;;;;;4.84;3.08;;;;;;;;;;363044;145;856964;-60
2021/08/18 15:48:30;;;;;;;7.22;3.36;;;;;;;;;;362789;146;856518;-59
2021/08/18 15:49:31;;;;;;;4.02;3.08;;;;;;;;;;362615;145;856997;-60
2021/08/18 15:50:34;;;;;;;4.86;3.29;;;;;;;;;;362520;145;856795;-63
2021/08/18 15:51:36;;;;;;;3.83;2.78;;;;;;;;;;362992;147;856351;-62
2021/08/18 15:52:38;;;;;;;6.67;2.93;;;;;;;;;;363134;146;856284;-63
2021/08/18 15:53:40;;;;;;;5.46;2.83;;;;;;;;;;362718;145;856324;-58
2021/08/18 15:54:41;;;;;;;4.21;3.26;;;;;;;;;;363386;145;856455;-62
2021/08/18 15:55:43;;;;;;;6.49;2.91;;;;;;;;;;363106;146;863695;-61
2021/08/18 15:56:46;;;;;;;6.42;2.95;;;;;;;;;;365779;146;863963;-62
2021/08/18 15:57:48;;;;;;;4.96;3.31;;;;;;;;;;364064;145;856402;-61
2021/08/18 15:58:49;;;;;;;8.86;3.84;;;;;;;;;;366289;146;856469;-63
2021/08/18 15:59:51;;;;;;;4.56;3.00;;;;;;;;;;363557;145;856417;-62
2021/08/18 16:00:53;;;;;;;5.19;3.29;;;;;;;;;;364471;145;856636;-62
2021/08/18 16:01:55;;;;;;;7.33;3.01;;;;;;;;;;362988;145;856428;-61
2021/08/18 16:02:56;;;;;;;4.31;3.10;;;;;;;;;;362567;146;863715;-61
2021/08/18 16:03:58;;;;;;;5.98;3.27;;;;;;;;;;362772;145;857022;-61
2021/08/18 16:05:00;;;;;;;6.06;3.32;;;;;;;;;;363653;146;856665;-62
2021/08/18 16:06:02;;;;;;;9.57;3.38;;;;;;;;;;362709;146;856526;-60
2021/08/18 16:07:03;;;;;;;6.46;2.99;;;;;;;;;;363543;146;857148;-62
2021/08/18 16:08:10;;;;;;;6.49;3.56;;;;;;;;;;363784;145;856647;-59
2021/08/18 16:09:08;;;;;;;7.55;4.03;;;;;;;;;;362346;146;863925;-60
2021/08/18 16:10:11;;;;;;;6.58;4.01;;;;;;;;;;362873;147;856479;-60
2021/08/18 16:11:12;;;;;;;7.91;4.04;;;;;;;;;;362929;145;856450;-61
2021/08/18 16:12:14;;;;;;;7.80;3.43;;;;;;;;;;363121;145;856390;-61
2021/08/18 16:13:15;;;;;;;9.36;4.09;;;;;;;;;;365612;145;856307;-60
2021/08/18 16:14:17;;;;;;;4.28;2.94;;;;;;;;;;366318;145;856568;-61
2021/08/18 16:15:18;;;;;;;5.18;3.52;;;;;;;;;;364295;145;856311;-61
2021/08/18 16:16:20;;;;;;;3.81;2.96;;;;;;;;;;362676;145;856287;-62
2021/08/18 16:17:26;;;;;;;6.07;3.31;;;;;;;;;;363602;146;856354;-60
2021/08/18 16:18:25;;;;;;;7.78;2.93;;;;;;;;;;365099;144;856892;-60
2021/08/18 16:19:27;;;;;;;5.99;3.18;;;;;;;;;;362490;147;856328;-59
2021/08/18 16:20:29;;;;;;;5.13;3.29;;;;;;;;;;362887;144;856853;-60
2021/08/18 16:21:30;;;;;;;8.76;3.14;;;;;;;;;;363582;145;863953;-61
2021/08/18 16:22:32;;;;;;;5.19;2.99;;;;;;;;;;363025;145;856538;-59
2021/08/18 16:23:34;;;;;;;5.26;3.31;;;;;;;;;;364092;145;856395;-60
2021/08/18 16:24:35;;;;;;;5.92;3.01;;;;;;;;;;362613;145;856300;-60
2021/08/18 16:25:37;;;;;;;12.56;3.51;;;;;;;;;;364048;145;856300;-61
2021/08/18 16:26:38;;;;;;;5.89;3.30;;;;;;;;;;363164;145;856442;-61
2021/08/18 16:27:40;;;;;;;6.11;3.38;;;;;;;;;;362649;146;863658;-61
2021/08/18 16:28:42;;;;;;;6.21;3.01;;;;;;;;;;364385;146;856442;-60
2021/08/18 16:29:43;;;;;;;7.34;3.82;;;;;;;;;;362506;146;856257;-60
2021/08/18 16:30:45;;;;;;;8.14;3.39;;;;;;;;;;363921;146;856285;-61
2021/08/18 16:31:51;;;;;;;5.48;2.91;;;;;;;;;;365832;145;856376;-60
2021/08/18 16:32:50;;;;;;;3.46;2.90;;;;;;;;;;364627;145;856265;-60
2021/08/18 16:33:52;;;;;;;6.12;3.07;;;;;;;;;;363207;146;856321;-60
2021/08/18 16:34:53;;;;;;;4.29;3.03;;;;;;;;;;362722;146;856270;-61
2021/08/18 16:35:55;;;;;;;5.26;3.09;;;;;;;;;;363093;145;856585;-60
2021/08/18 16:36:57;;;;;;;5.49;3.10;;;;;;;;;;362616;145;863823;-60
2021/08/18 16:37:58;;;;;;;6.21;3.13;;;;;;;;;;364070;145;857357;-60
2021/08/18 16:39:00;;;;;;;5.87;3.45;;;;;;;;;;362763;148;856680;-60
2021/08/18 16:40:02;;;;;;;3.56;2.79;;;;;;;;;;363299;145;864140;-63
2021/08/18 16:41:04;;;;;;;6.51;3.03;;;;;;;;;;362766;145;856559;-61
2021/08/18 16:42:06;;;;;;;5.53;3.33;;;;;;;;;;363686;146;856452;-61
2021/08/18 16:43:07;;;;;;;6.21;3.13;;;;;;;;;;364556;146;857314;-60
2021/08/18 16:44:09;;;;;;;9.24;3.39;;;;;;;;;;362715;145;857017;-60
2021/08/18 16:45:15;;;;;;;6.74;3.61;;;;;;;;;;364899;146;857271;-60
2021/08/18 16:46:17;;;;;;;7.76;3.24;;;;;;;;;;365025;145;856280;-60
2021/08/18 16:47:18;;;;;;;10.21;3.73;;;;;;;;;;364182;145;856945;-60
2021/08/18 16:48:20;;;;;;;7.51;3.63;;;;;;;;;;363178;145;864434;-60
2021/08/18 16:49:23;;;;;;;5.94;3.18;;;;;;;;;;362700;148;856992;-60
2021/08/18 16:50:25;;;;;;;4.96;3.31;;;;;;;;;;362659;147;857238;-61
2021/08/18 16:51:27;;;;;;;9.12;3.72;;;;;;;;;;363918;146;856430;-60
2021/08/18 16:52:28;;;;;;;6.46;3.17;;;;;;;;;;367822;145;857007;-61
2021/08/18 16:53:30;;;;;;;7.46;3.17;;;;;;;;;;364246;145;857163;-61
2021/08/18 16:54:31;;;;;;;13.71;3.51;;;;;;;;;;363894;145;856436;-60
2021/08/18 16:55:33;;;;;;;6.55;3.27;;;;;;;;;;362909;145;856413;-60
2021/08/18 16:56:35;;;;;;;4.79;3.44;;;;;;;;;;362695;146;856370;-60
2021/08/18 16:57:41;;;;;;;6.51;3.31;;;;;;;;;;364031;145;856453;-62
2021/08/18 16:58:42;;;;;;;4.83;3.37;;;;;;;;;;362353;145;856762;-60
2021/08/18 16:59:44;;;;;;;8.05;3.56;;;;;;;;;;362616;148;856527;-61
2021/08/18 17:00:46;;;;;;;5.09;3.50;;;;;;;;;;363003;145;856380;-61
2021/08/18 17:01:48;;;;;;;9.23;3.50;;;;;;;;;;362605;145;856579;-64
2021/08/18 17:02:49;;;;;;;6.21;3.55;;;;;;;;;;362615;148;856263;-62
2021/08/18 17:03:51;;;;;;;7.96;3.63;;;;;;;;;;362947;145;856483;-61
2021/08/18 17:04:52;;;;;;;4.28;3.49;;;;;;;;;;363777;144;856936;-60
2021/08/18 17:05:54;;;;;;;9.25;3.52;;;;;;;;;;363223;145;863648;-59
2021/08/18 17:06:58;;;;;;;5.88;3.05;;;;;;;;;;364215;147;856390;-59
2021/08/18 17:08:00;;;;;;;10.16;3.50;;;;;;;;;;362991;145;863667;-58
2021/08/18 17:09:04;;;;;;;6.25;3.14;;;;;;;;;;362495;145;856294;-59
2021/08/18 17:10:06;;;;;;;4.69;3.46;;;;;;;;;;363257;148;856478;-59
2021/08/18 17:11:07;;;;;;;7.23;3.30;;;;;;;;;;362240;147;864980;-60
2021/08/18 17:12:09;;;;;;;8.76;3.09;;;;;;;;;;362321;145;858696;-60
2021/08/18 17:13:11;;;;;;;8.61;3.86;;;;;;;;;;364100;145;863983;-60
2021/08/18 17:14:12;;;;;;;5.20;3.19;;;;;;;;;;363614;146;864439;-60
2021/08/18 17:15:14;;;;;;;5.12;3.75;;;;;;;;;;363432;145;863865;-60
2021/08/18 17:16:16;;;;;;;7.51;3.24;;;;;;;;;;363568;145;856423;-60
2021/08/18 17:17:17;;;;;;;11.14;3.89;;;;;;;;;;363869;146;856323;-60
2021/08/18 17:18:19;;;;;;;5.79;3.66;;;;;;;;;;364305;145;856473;-60
2021/08/18 17:19:20;;;;;;;6.45;3.49;;;;;;;;;;364176;145;856400;-60
2021/08/18 17:20:22;;;;;;;5.31;3.46;;;;;;;;;;367451;145;856261;-61
2021/08/18 17:21:25;;;;;;;4.91;3.82;;;;;;;;;;362627;147;856386;-60
2021/08/18 17:22:26;;;;;;;5.93;3.49;;;;;;;;;;364878;145;863644;-60
2021/08/18 17:23:28;;;;;;;4.82;3.23;;;;;;;;;;363199;144;856732;-60
2021/08/18 17:24:30;;;;;;;4.93;3.83;;;;;;;;;;363461;146;856670;-60
2021/08/18 17:25:32;;;;;;;5.41;3.55;;;;;;;;;;364431;146;856509;-60
2021/08/18 17:26:34;;;;;;;4.03;3.52;;;;;;;;;;363637;145;856546;-59
2021/08/18 17:27:35;;;;;;;7.91;4.08;;;;;;;;;;363454;148;864704;-60
2021/08/18 17:28:37;;;;;;;6.61;4.14;;;;;;;;;;364303;144;856848;-59
2021/08/18 17:29:39;;;;;;;5.17;3.65;;;;;;;;;;363558;146;857103;-59
2021/08/18 17:30:41;;;;;;;4.01;3.63;;;;;;;;;;364923;145;856355;-60
2021/08/18 17:31:43;;;;;;;7.64;3.51;;;;;;;;;;364243;146;856389;-59
2021/08/18 17:32:45;;;;;;;8.29;4.04;;;;;;;;;;363300;145;863715;-60
2021/08/18 17:33:46;;;;;;;5.95;3.84;;;;;;;;;;363290;145;857971;-59
2021/08/18 17:34:48;;;;;;;4.91;3.71;;;;;;;;;;364275;146;857408;-60
2021/08/18 17:35:49;;;;;;;6.12;3.93;;;;;;;;;;362294;145;857554;-59
2021/08/18 17:36:52;;;;;;;6.91;3.85;;;;;;;;;;363313;146;866632;-60
2021/08/18 17:37:55;;;;;;;7.29;4.08;;;;;;;;;;364062;145;864799;-60
2021/08/18 17:38:56;;;;;;;4.69;3.72;;;;;;;;;;363909;145;856320;-60
2021/08/18 17:39:58;;;;;;;9.19;4.59;;;;;;;;;;364348;145;856418;-60
2021/08/18 17:41:00;;;;;;;4.95;3.62;;;;;;;;;;362780;146;856502;-60
2021/08/18 17:42:01;;;;;;;6.59;3.76;;;;;;;;;;363009;148;856622;-60
2021/08/18 17:43:03;;;;;;;6.65;3.89;;;;;;;;;;363457;145;856944;-59
2021/08/18 17:44:05;;;;;;;9.45;4.21;;;;;;;;;;363339;145;864944;-60
2021/08/18 17:45:07;;;;;;;7.84;4.51;;;;;;;;;;363037;145;859260;-60
2021/08/18 17:46:10;;;;;;;6.57;4.65;;;;;;;;;;362458;148;859161;-60
2021/08/18 17:47:11;;;;;;;8.17;4.39;;;;;;;;;;364488;145;863851;-61
2021/08/18 17:48:13;;;;;;;9.77;4.41;;;;;;;;;;364770;145;856692;-59
2021/08/18 17:49:15;;;;;;;6.79;4.66;;;;;;;;;;362838;146;856807;-59
2021/08/18 17:50:17;;;;;;;4.91;4.30;;;;;;;;;;363238;146;856463;-60
2021/08/18 17:51:19;;;;;;;6.02;3.86;;;;;;;;;;363567;145;857187;-59
2021/08/18 17:52:20;;;;;;;10.17;4.53;;;;;;;;;;366803;145;859101;-59
2021/08/18 17:53:22;;;;;;;6.61;3.91;;;;;;;;;;367252;144;859601;-60
2021/08/18 17:54:24;;;;;;;9.21;4.82;;;;;;;;;;365594;144;864321;-59
2021/08/18 17:55:25;;;;;;;6.48;4.54;;;;;;;;;;364997;145;856271;-59
2021/08/18 17:56:27;;;;;;;7.68;4.11;;;;;;;;;;364008;145;856429;-59
2021/08/18 17:57:30;;;;;;;9.74;4.35;;;;;;;;;;362752;146;863863;-59
2021/08/18 17:58:32;;;;;;;6.49;4.05;;;;;;;;;;357238;149;856549;-60
2021/08/18 17:59:33;;;;;;;6.39;3.93;;;;;;;;;;357466;146;856550;-61
2021/08/18 18:00:35;;;;;;;5.44;4.04;;;;;;;;;;365099;145;856255;-60
2021/08/18 18:01:37;;;;;;;7.51;3.90;;;;;;;;;;362586;146;856933;-61
2021/08/18 18:02:40;;;;;;;6.47;4.29;;;;;;;;;;363101;145;863838;-61
2021/08/18 18:03:42;;;;;;;7.29;4.35;;;;;;;;;;362583;148;856750;-61
2021/08/18 18:04:43;;;;;;;7.51;4.29;;;;;;;;;;363903;145;856268;-60
2021/08/18 18:05:45;;;;;;;5.67;3.88;;;;;;;;;;362482;145;856349;-60
2021/08/18 18:06:47;;;;;;;6.23;4.23;;;;;;;;;;362671;145;856281;-60
2021/08/18 18:07:48;;;;;;;4.31;3.69;;;;;;;;;;362813;147;856455;-61
2021/08/18 18:08:50;;;;;;;6.69;4.13;;;;;;;;;;364410;145;856906;-60
2021/08/18 18:09:52;;;;;;;5.78;3.87;;;;;;;;;;363721;146;863635;-60
2021/08/18 18:10:54;;;;;;;6.74;3.44;;;;;;;;;;366055;145;856330;-60
2021/08/18 18:11:55;;;;;;;6.14;3.71;;;;;;;;;;363698;145;856557;-60
2021/08/18 18:12:59;;;;;;;6.87;4.10;;;;;;;;;;363609;145;864126;-59
2021/08/18 18:14:00;;;;;;;5.22;3.89;;;;;;;;;;362875;146;856467;-60
2021/08/18 18:15:04;;;;;;;9.65;4.06;;;;;;;;;;363977;146;856368;-61
2021/08/18 18:16:06;;;;;;;6.72;4.14;;;;;;;;;;362915;145;856986;-60
2021/08/18 18:17:08;;;;;;;7.22;3.94;;;;;;;;;;362562;145;856561;-59
2021/08/18 18:18:09;;;;;;;8.43;3.95;;;;;;;;;;363082;146;856447;-62
2021/08/18 18:19:11;;;;;;;9.31;4.29;;;;;;;;;;363236;145;857151;-60
2021/08/18 18:20:13;;;;;;;5.92;3.91;;;;;;;;;;363053;145;857045;-60
2021/08/18 18:21:14;;;;;;;6.35;3.80;;;;;;;;;;365079;146;856847;-60
2021/08/18 18:22:16;;;;;;;9.79;4.06;;;;;;;;;;363128;146;856326;-60
2021/08/18 18:23:18;;;;;;;6.04;3.92;;;;;;;;;;363084;145;856392;-60
2021/08/18 18:24:20;;;;;;;7.71;4.16;;;;;;;;;;363477;145;863729;-59
2021/08/18 18:25:21;;;;;;;9.89;4.42;;;;;;;;;;362722;148;856874;-60
2021/08/18 18:26:23;;;;;;;7.09;3.91;;;;;;;;;;363089;145;856238;-60
2021/08/18 18:27:25;;;;;;;6.99;3.93;;;;;;;;;;364111;145;863798;-60
2021/08/18 18:28:27;;;;;;;7.36;4.26;;;;;;;;;;362658;148;856260;-61
2021/08/18 18:29:28;;;;;;;6.70;4.01;;;;;;;;;;363623;145;856539;-59
2021/08/18 18:30:31;;;;;;;10.83;4.63;;;;;;;;;;362869;145;856431;-59
2021/08/18 18:31:33;;;;;;;8.78;4.28;;;;;;;;;;363224;146;863882;-59
2021/08/18 18:32:34;;;;;;;7.52;3.96;;;;;;;;;;362757;148;856375;-59
2021/08/18 18:33:36;;;;;;;6.96;3.96;;;;;;;;;;362608;145;856319;-59
2021/08/18 18:34:38;;;;;;;6.87;4.41;;;;;;;;;;364521;145;856235;-59
2021/08/18 18:35:40;;;;;;;6.99;4.08;;;;;;;;;;366843;146;864215;-60
2021/08/18 18:36:42;;;;;;;7.79;4.25;;;;;;;;;;361440;147;856355;-60
2021/08/18 18:37:44;;;;;;;8.27;4.21;;;;;;;;;;359190;147;863700;-60
2021/08/18 18:38:46;;;;;;;6.87;4.11;;;;;;;;;;360846;147;856278;-60
2021/08/18 18:39:47;;;;;;;7.53;3.95;;;;;;;;;;354120;148;856248;-59
2021/08/18 18:40:51;;;;;;;6.78;4.41;;;;;;;;;;359348;147;856852;-60
2021/08/18 18:41:52;;;;;;;7.70;4.48;;;;;;;;;;359162;147;856346;-59
2021/08/18 18:42:54;;;;;;;11.39;4.94;;;;;;;;;;363741;146;856680;-59
2021/08/18 18:43:55;;;;;;;7.59;4.56;;;;;;;;;;361893;145;856361;-59
2021/08/18 18:44:57;;;;;;;6.20;3.73;;;;;;;;;;358726;148;856330;-59
2021/08/18 18:45:59;;;;;;;8.56;4.17;;;;;;;;;;361004;148;856342;-59
2021/08/18 18:47:01;;;;;;;6.41;3.99;;;;;;;;;;361957;149;856571;-58
2021/08/18 18:48:03;;;;;;;8.65;4.41;;;;;;;;;;359459;147;856483;-59
2021/08/18 18:49:05;;;;;;;8.25;4.10;;;;;;;;;;357985;148;856486;-59
2021/08/18 18:50:07;;;;;;;4.90;3.98;;;;;;;;;;360444;149;856640;-59
2021/08/18 18:51:09;;;;;;;8.79;4.47;;;;;;;;;;361953;147;856470;-59
2021/08/18 18:52:10;;;;;;;6.29;3.96;;;;;;;;;;357396;147;856537;-59
2021/08/18 18:53:12;;;;;;;6.62;4.31;;;;;;;;;;361306;148;856444;-59
2021/08/18 18:54:13;;;;;;;7.71;4.55;;;;;;;;;;362068;149;856382;-59
2021/08/18 18:55:15;;;;;;;6.49;3.91;;;;;;;;;;360854;147;856570;-60
2021/08/18 18:56:17;;;;;;;7.13;4.72;;;;;;;;;;358722;147;856282;-59
2021/08/18 18:57:19;;;;;;;5.64;3.86;;;;;;;;;;360220;149;856293;-59
2021/08/18 18:58:20;;;;;;;10.51;4.84;;;;;;;;;;361347;146;856376;-59
2021/08/18 18:59:22;;;;;;;9.71;4.12;;;;;;;;;;359086;147;863880;-60
2021/08/18 19:00:24;;;;;;;8.65;4.12;;;;;;;;;;354733;148;857272;-60
2021/08/18 19:01:26;;;;;;;6.12;4.16;;;;;;;;;;360035;145;857327;-59
2021/08/18 19:02:27;;;;;;;7.76;4.21;;;;;;;;;;359532;147;865901;-59
2021/08/18 19:03:33;;;;;;;8.94;4.90;;;;;;;;;;358481;147;858114;-59
2021/08/18 19:04:32;;;;;;;9.07;4.26;;;;;;;;;;357171;148;857711;-59
2021/08/18 19:05:35;;;;;;;7.26;4.04;;;;;;;;;;361170;147;859082;-59